x

Sentry Shoal (46131) Wave Buoy

3:00am - Mon 20th Oct 2014 All times are PDT. -7 hours from GMT.

  • Sig Wave height 2.3ft
  • Peak Period 3s
  • Wind
    18mph, 22mph gusts
  • Sea Temp 53°f
  • Air Temp 56°f
  • Sea Pressure 1001.9mb
  • Sentry Shoal
  • Sentry Shoal

More Historic Weather Station data

Upgrade to MSW Pro to gain access to the past 30 days of data for over 8000 Wavebouys and Weather Stations around the globe.

Join Pro

Comparision Forecast

View Surf forecast
   
Mon 10/20 3:00am 2.5ft 3s 18 22 mph 1001.9mb 53f 56f
2:00am 1.6ft 3s 18 22 mph 1001.6mb 53f 56f
1:00am 1.6ft 3s 13 18 mph 1002.1mb 53f 56f
12:00am 1.3ft 2s 13 18 mph 1002mb 53f 56f
Sun 10/19 11:00pm 1.3ft 3s 18 20 mph 1002mb 53f 56f
10:00pm 1.6ft 3s 18 20 mph 1002.4mb 53f 55f
8:00pm 2.5ft 4s 22 27 mph 1001.7mb 53f 55f
7:00pm 2ft 3s 22 27 mph 1001.7mb 53f 56f
6:00pm 2.5ft 4s 20 27 mph 1000.5mb 53f 56f
5:00pm 2.5ft 5s 20 25 mph 1001.1mb 53f 57f
4:00pm 3ft 4s 18 20 mph 1000.4mb 53f 56f
3:00pm 3.5ft 4s 22 27 mph 999.8mb 53f 57f
2:00pm 4.5ft 4s 22 25 mph 1000.1mb 53f 57f
1:00pm 4.5ft 5s 29 36 mph 999.7mb 53f 59f
12:00pm 3.5ft 4s 29 36 mph 999.5mb 53f 58f
11:00am 4ft 4s 25 29 mph 1000.3mb 53f 57f
10:00am 4ft 4s 27 34 mph 1000.4mb 53f 56f
9:00am 4ft 5s 18 22 mph 1001.2mb 53f 56f
8:00am 3.5ft 4s 20 29 mph 1000.7mb 53f 57f
7:00am 3.5ft 4s 27 31 mph 1001.2mb 53f 58f
6:00am 4ft 4s 25 29 mph 1002.1mb 53f 58f
5:00am 4ft 4s 22 27 mph 1002.4mb 53f 57f
4:00am 3.5ft 4s 25 31 mph 1003.2mb 53f 58f
3:00am 4ft 5s 25 31 mph 1004mb 53f 57f
2:00am 3.5ft 5s 29 34 mph 1004.2mb 53f 58f
1:00am 3ft 4s 22 27 mph 1005.7mb 53f 56f
12:00am 3ft 4s 27 31 mph 1005.9mb 53f 58f
Sat 10/18 11:00pm 2.5ft 4s 18 27 mph 1007mb 53f 56f
10:00pm 2ft 3s 22 25 mph 1007mb 53f 57f
9:00pm 2.5ft 4s 22 29 mph 1007.7mb 53f 56f
8:00pm 3ft 4s 18 22 mph 1008.2mb 53f 56f
7:00pm 3ft 4s 25 31 mph 1008.6mb 52f 56f
6:00pm 2.5ft 3s 25 29 mph 1009mb 53f 56f
5:00pm 3ft 4s 27 31 mph 1008.9mb 53f 56f
4:00pm 3.5ft 4s 25 27 mph 1009.3mb 53f 57f
3:00pm 3.5ft 4s 25 29 mph 1009.5mb 53f 57f
2:00pm 3.5ft 4s 25 31 mph 1009.5mb 53f 57f
1:00pm 3.5ft 4s 25 29 mph 1009.5mb 53f 57f
12:00pm 4ft 4s 25 31 mph 1009.3mb 53f 56f
11:00am 3.5ft 4s 27 34 mph 1008.9mb 53f 56f
10:00am 2ft 3s 20 25 mph 1009.1mb 53f 56f
9:00am 1ft 3s 18 20 mph 1009.1mb 53f 54f
8:00am 1.3ft 3s 18 20 mph 1009mb 53f 54f
7:00am 1.6ft 3s 16 18 mph 1009.1mb 53f 54f
6:00am 2ft 4s 11 13 mph 1009.2mb 53f 54f
5:00am 2.5ft 4s 11 16 mph 1009.2mb 53f 55f
4:00am 3ft 4s 13 18 mph 1008.7mb 53f 54f
3:00am 4.5ft 5s 16 20 mph 1008.1mb 53f 55f
2:00am 5ft 5s 11 13 mph 1007.4mb 53f 55f
1:00am 5.5ft 6s 13 18 mph 1006.3mb 53f 55f
12:00am 6ft 5s 20 25 mph 1004.8mb 53f 56f
Fri 10/17 11:00pm 6ft 6s 18 25 mph 1004.5mb 53f 56f
10:00pm 6ft 5s 29 36 mph 1002.8mb 53f 56f
9:00pm 5ft 6s 22 25 mph 1002.7mb 53f 56f
8:00pm 5ft 5s 22 29 mph 1002.4mb 53f 56f
7:00pm 4.5ft 5s 27 31 mph 1001.7mb 53f 57f
6:00pm 4.5ft 6s 18 22 mph 1002.3mb 53f 56f
5:00pm 4.5ft 4s 16 20 mph 1001.9mb 54f 55f
4:00pm 4.5ft 4s 25 29 mph 1001.1mb 54f 55f
3:00pm 4.5ft 5s 22 29 mph 1001.6mb 54f 55f
2:00pm 4.5ft 5s 20 25 mph 1001.9mb 53f 53f
1:00pm 4ft 4s 20 27 mph 1002.3mb 53f 54f
12:00pm 3.5ft 4s 22 29 mph 1002.3mb 53f 55f
11:00am 3.5ft 4s 22 27 mph 1003.3mb 53f 54f
10:00am 3.5ft 4s 18 22 mph 1004mb 53f 53f
9:00am 3.5ft 4s 22 27 mph 1004.6mb 53f 53f
8:00am 3.5ft 4s 22 27 mph 1004.7mb 53f 53f
7:00am 2.5ft 4s 20 25 mph 1005mb 53f 53f
6:00am 3.5ft 4s 20 25 mph 1005.2mb 53f 54f
5:00am 4.5ft 4s 25 31 mph 1005.3mb 54f 54f
4:00am 4ft 4s 25 29 mph 1005.4mb 54f 55f
3:00am 3.5ft 4s 22 29 mph 1006.1mb 54f 55f
2:00am 3ft 3s 18 22 mph 1006.6mb 55f 55f
1:00am 2.5ft 3s 18 20 mph 1007.1mb 55f 56f
12:00am 2.5ft 3s 22 25 mph 1007.3mb 55f 56f
Thu 10/16 11:00pm 2ft 3s 18 22 mph 1008mb 55f 56f
10:00pm 2ft 3s 18 20 mph 1008.7mb 55f 56f
9:00pm 2ft 3s 18 20 mph 1009.6mb 55f 56f
8:00pm 2ft 4s 16 18 mph 1010.1mb 55f 55f
7:00pm 3ft 4s 16 18 mph 1010.3mb 55f 56f
6:00pm 3ft 4s 20 22 mph 1010.6mb 54f 56f
5:00pm 3ft 4s 18 22 mph 1011.4mb 54f 56f
4:00pm 3.5ft 4s 18 20 mph 1012.1mb 54f 55f
3:00pm 3.5ft 4s 20 25 mph 1012.2mb 54f 55f
2:00pm 4ft 4s 20 25 mph 1012.8mb 54f 55f
1:00pm 3.5ft 5s 22 27 mph 1013.3mb 54f 55f
12:00pm 3.5ft 4s 22 27 mph 1013.9mb 54f 54f